TAF Text Data
IDs:
Format:
Raw Decoded Include METAR

Data at: 0207 UTC 19 Oct 2021

KCRP 182320Z 1900/1924 11010KT P6SM FEW040
  FM190800 VRB04KT P6SM SCT030 BKN250
  FM191600 13012G18KT P6SM SCT040 BKN250